Time;durP1;ratioP1;P1;durP2;ratioP2;P2;SDS_P1;SDS_P2;PMS_P1;PMS_P2;Temp;Humidity;BMP_temperature;BMP_pressure;BME280_temperature;BME280_humidity;BME280_pressure;Samples;Min_cycle;Max_cycle;Signal;HPM_P1;HPM_P2
2022/03/23 00:01:21;;;;;;;38.95;24.13;;;;;;;6.31;67.96;102941.56;5051055;28;20583;-73
2022/03/23 00:03:47;;;;;;;37.40;22.50;;;;;;;6.21;67.59;102939.53;5051261;28;20037;-73
2022/03/23 00:06:17;;;;;;;39.55;22.48;;;;;;;6.20;68.01;102942.06;5050525;28;20385;-72
2022/03/23 00:08:45;;;;;;;42.03;23.75;;;;;;;6.17;68.91;102942.00;5050983;28;20097;-73
2022/03/23 00:11:10;;;;;;;43.78;24.33;;;;;;;6.04;67.84;102936.44;5051009;28;20032;-73
2022/03/23 00:13:36;;;;;;;42.33;23.83;;;;;;;6.01;68.79;102951.03;5050212;28;20021;-73
2022/03/23 00:16:03;;;;;;;37.75;23.13;;;;;;;5.93;68.84;102947.34;5051397;28;20079;-73
2022/03/23 00:18:28;;;;;;;44.95;24.48;;;;;;;5.89;69.52;102943.75;5050915;28;20528;-72
2022/03/23 00:20:54;;;;;;;38.97;24.52;;;;;;;5.91;70.48;102946.38;5050294;28;20119;-73
2022/03/23 00:23:19;;;;;;;45.60;24.38;;;;;;;5.91;69.98;102948.97;5051039;28;20035;-73
2022/03/23 00:25:44;;;;;;;42.17;24.58;;;;;;;5.82;69.47;102934.94;5050946;28;20048;-72
2022/03/23 00:28:10;;;;;;;42.05;24.42;;;;;;;5.84;70.65;102948.78;5050299;28;20029;-72
2022/03/23 00:30:35;;;;;;;39.45;23.48;;;;;;;5.77;70.36;102945.97;5051232;28;20021;-72
2022/03/23 00:33:02;;;;;;;40.60;24.48;;;;;;;5.74;70.42;102946.75;5050938;28;20040;-72
2022/03/23 00:35:29;;;;;;;40.80;23.88;;;;;;;5.74;71.57;102951.94;5049974;28;20025;-72
2022/03/23 00:37:55;;;;;;;48.60;24.90;;;;;;;5.71;71.34;102945.78;5050945;28;20036;-72
2022/03/23 00:40:21;;;;;;;43.60;23.75;;;;;;;5.66;70.90;102943.06;5050704;28;20152;-72
2022/03/23 00:42:47;;;;;;;42.58;24.35;;;;;;;5.58;71.06;102939.38;5049913;28;20428;-73
2022/03/23 00:45:12;;;;;;;43.45;25.10;;;;;;;5.62;71.51;102951.56;5050929;28;20051;-72
2022/03/23 00:47:38;;;;;;;41.33;23.75;;;;;;;5.58;71.81;102948.00;5050778;28;20025;-72
2022/03/23 00:50:04;;;;;;;39.85;23.40;;;;;;;5.56;72.57;102946.22;5050242;28;20033;-72
2022/03/23 00:52:30;;;;;;;43.63;24.20;;;;;;;5.53;72.01;102948.72;5050182;28;20504;-72
2022/03/23 00:54:55;;;;;;;51.38;26.35;;;;;;;5.43;72.06;102929.44;5051676;28;20029;-72
2022/03/23 00:57:20;;;;;;;50.63;26.58;;;;;;;5.42;71.96;102948.34;5053778;28;20017;-72
2022/03/23 00:59:46;;;;;;;45.80;26.52;;;;;;;5.40;71.79;102950.03;5054315;28;20028;-73
2022/03/23 01:02:11;;;;;;;43.90;25.52;;;;;;;5.35;72.11;102942.13;5053374;28;20032;-72
2022/03/23 01:04:37;;;;;;;43.38;25.42;;;;;;;5.31;73.03;102934.22;5054191;28;20033;-72
2022/03/23 01:07:03;;;;;;;48.00;24.92;;;;;;;5.31;72.72;102945.44;5054814;28;20025;-72
2022/03/23 01:09:29;;;;;;;45.10;24.92;;;;;;;5.22;72.82;102939.97;5053062;28;20025;-72
2022/03/23 01:11:55;;;;;;;50.67;25.95;;;;;;;5.17;72.71;102931.19;5053833;28;20017;-72
2022/03/23 01:14:22;;;;;;;49.42;25.45;;;;;;;5.21;73.94;102935.63;5053901;28;20033;-72
2022/03/23 01:16:50;;;;;;;46.75;25.40;;;;;;;5.20;73.72;102932.97;5053272;28;20388;-72
2022/03/23 01:19:17;;;;;;;44.90;24.50;;;;;;;5.20;73.79;102935.56;5053760;28;20537;-72
2022/03/23 01:21:45;;;;;;;44.05;25.05;;;;;;;5.16;73.10;102937.19;5053562;28;20029;-73
2022/03/23 01:24:11;;;;;;;46.55;25.83;;;;;;;5.10;73.16;102939.56;5052975;28;20032;-72
2022/03/23 01:26:36;;;;;;;42.22;24.65;;;;;;;5.05;73.54;102935.97;5053758;28;20472;-72
2022/03/23 01:29:03;;;;;;;50.95;25.83;;;;;;;4.99;73.70;102941.81;5054304;28;20074;-72
2022/03/23 01:31:29;;;;;;;45.08;25.92;;;;;;;4.96;74.44;102930.47;5052625;28;20460;-72
2022/03/23 01:33:59;;;;;;;49.33;25.85;;;;;;;4.95;74.50;102931.31;5053652;28;20080;-72
2022/03/23 01:36:29;;;;;;;48.30;25.83;;;;;;;4.93;74.82;102929.53;5051646;28;20029;-72
2022/03/23 01:38:54;;;;;;;43.65;25.83;;;;;;;4.86;74.36;102931.88;5032796;28;20496;-72
2022/03/23 01:41:19;;;;;;;46.38;25.75;;;;;;;4.76;74.85;102919.50;5033240;28;20033;-72
2022/03/23 01:43:45;;;;;;;42.80;24.85;;;;;;;4.74;76.38;102919.44;5033723;28;20033;-73
2022/03/23 01:46:11;;;;;;;48.13;25.77;;;;;;;4.73;75.50;102924.56;5032821;28;20036;-72
2022/03/23 01:48:36;;;;;;;41.95;24.40;;;;;;;4.68;75.58;102924.41;5033343;28;20033;-72
2022/03/23 01:51:02;;;;;;;42.97;24.88;;;;;;;4.61;76.90;102914.66;5033299;28;20018;-73
2022/03/23 01:53:27;;;;;;;43.83;24.67;;;;;;;4.63;76.66;102924.22;5032318;28;20034;-72
2022/03/23 01:55:52;;;;;;;49.35;24.83;;;;;;;4.56;76.99;102919.69;5033361;28;20033;-72
2022/03/23 01:58:21;;;;;;;45.67;26.40;;;;;;;4.53;76.83;102919.56;5032499;28;20048;-72
2022/03/23 02:00:46;;;;;;;48.53;25.85;;;;;;;4.52;77.59;102922.13;5033181;28;20029;-72
2022/03/23 02:03:12;;;;;;;41.75;26.17;;;;;;;4.41;77.23;102907.13;5033136;28;20096;-72
2022/03/23 02:05:37;;;;;;;44.90;25.23;;;;;;;4.42;77.37;102918.34;5031498;28;20021;-72
2022/03/23 02:08:03;;;;;;;48.40;25.45;;;;;;;4.41;77.19;102908.81;5032774;28;20116;-72
2022/03/23 02:10:28;;;;;;;47.00;24.52;;;;;;;4.37;77.38;102918.16;5033143;28;20061;-72
2022/03/23 02:12:53;;;;;;;42.42;24.48;;;;;;;4.33;77.06;102918.88;5032242;28;20029;-72
2022/03/23 02:15:19;;;;;;;49.33;25.05;;;;;;;4.29;77.28;102917.03;5032967;28;20401;-72
2022/03/23 02:17:46;;;;;;;45.22;25.10;;;;;;;4.18;77.39;102915.75;5032730;28;20017;-72
2022/03/23 02:20:12;;;;;;;48.35;26.50;;;;;;;4.17;77.33;102914.00;5032092;28;20036;-72
2022/03/23 02:22:37;;;;;;;46.13;26.33;;;;;;;4.11;77.80;102916.34;5032514;28;20029;-72
2022/03/23 02:25:05;;;;;;;53.28;26.83;;;;;;;4.09;77.94;102920.59;5032865;28;20030;-72
2022/03/23 02:27:30;;;;;;;49.42;27.35;;;;;;;4.04;77.40;102917.84;5031889;28;20037;-72
2022/03/23 02:29:57;;;;;;;45.05;25.08;;;;;;;4.03;77.86;102920.38;5032699;28;20028;-72
2022/03/23 02:32:23;;;;;;;49.63;28.20;;;;;;;3.99;78.98;102919.38;5032419;28;20025;-72
2022/03/23 02:34:48;;;;;;;49.42;27.02;;;;;;;4.01;78.28;102928.03;5031759;28;20561;-72
2022/03/23 02:37:13;;;;;;;50.67;26.38;;;;;;;3.99;78.42;102919.38;5032337;28;20030;-72
2022/03/23 02:39:39;;;;;;;47.75;25.88;;;;;;;3.90;78.86;102919.91;5032160;28;20038;-72
2022/03/23 02:42:04;;;;;;;52.92;27.65;;;;;;;3.83;78.97;102917.06;5031959;28;20024;-72
2022/03/23 02:44:30;;;;;;;48.58;26.65;;;;;;;3.83;79.24;102917.06;5032441;28;20362;-72
2022/03/23 02:46:55;;;;;;;51.78;27.30;;;;;;;3.79;79.03;102908.28;5032252;28;20104;-72
2022/03/23 02:49:21;;;;;;;47.38;26.42;;;;;;;3.70;79.21;102913.13;5031362;28;20028;-72
2022/03/23 02:51:50;;;;;;;48.08;25.58;;;;;;;3.69;79.35;102903.63;5031909;28;20499;-72
2022/03/23 03:03:10;;;;;;;46.90;26.05;;;;;;;3.50;79.43;102918.41;5031464;28;20409;-72
2022/03/23 03:05:36;;;;;;;48.28;25.90;;;;;;;3.48;80.57;102919.16;5032227;28;20057;-72
2022/03/23 03:10:45;;;;;;;49.90;25.60;;;;;;;3.50;80.82;102912.38;5031022;28;20393;-72
2022/03/23 03:13:10;;;;;;;48.03;25.05;;;;;;;3.44;80.38;102907.84;5031897;28;20025;-72
2022/03/23 03:15:35;;;;;;;51.75;26.58;;;;;;;3.43;80.86;102910.34;5031598;28;20465;-72
2022/03/23 03:18:01;;;;;;;48.60;26.88;;;;;;;3.43;80.82;102916.41;5031053;28;20043;-72
2022/03/23 03:20:27;;;;;;;54.33;28.42;;;;;;;3.40;80.40;102918.88;5031634;28;20025;-72
2022/03/23 03:22:53;;;;;;;47.45;26.27;;;;;;;3.36;80.54;102922.13;5030870;28;20021;-72
2022/03/23 03:25:20;;;;;;;52.72;27.98;;;;;;;3.34;80.96;102913.47;5031539;28;20068;-72
2022/03/23 03:27:46;;;;;;;48.20;27.02;;;;;;;3.35;81.82;102922.97;5031456;28;20421;-72
2022/03/23 03:30:14;;;;;;;47.35;26.58;;;;;;;3.35;81.00;102922.97;5030884;28;20078;-72
2022/03/23 03:32:40;;;;;;;52.90;26.42;;;;;;;3.31;81.43;102923.66;5031379;28;20124;-72
2022/03/23 03:35:06;;;;;;;49.75;26.05;;;;;;;3.27;80.82;102921.78;5031851;28;20104;-72
2022/03/23 03:37:32;;;;;;;46.60;25.90;;;;;;;3.23;81.27;102917.31;5030453;28;20071;-72
2022/03/23 03:39:57;;;;;;;44.75;25.65;;;;;;;3.22;81.40;102920.72;5031325;28;20041;-72
2022/03/23 03:42:23;;;;;;;49.47;26.77;;;;;;;3.21;81.77;102922.41;5031479;28;20029;-72
2022/03/23 03:44:50;;;;;;;49.55;25.88;;;;;;;3.18;81.10;102917.13;5030778;28;20082;-72
2022/03/23 03:47:16;;;;;;;53.63;25.90;;;;;;;3.11;81.73;102917.72;5031465;28;20022;-72
2022/03/23 03:49:41;;;;;;;45.17;26.15;;;;;;;3.11;82.37;102922.88;5063423;28;20029;-72
2022/03/23 03:52:07;;;;;;;44.97;25.35;;;;;;;3.08;81.64;102921.88;5030628;28;20087;-72
2022/03/23 03:54:32;;;;;;;42.40;25.20;;;;;;;3.10;82.48;102923.66;5031143;28;20045;-72
2022/03/23 03:56:57;;;;;;;47.35;25.77;;;;;;;3.07;82.19;102931.25;5031437;28;20034;-72
2022/03/23 03:59:22;;;;;;;49.58;24.55;;;;;;;3.04;82.12;102925.97;5030550;28;20051;-72
2022/03/23 04:01:49;;;;;;;50.78;24.92;;;;;;;3.05;82.55;102928.66;5031330;28;20080;-72
2022/03/23 04:04:14;;;;;;;47.97;25.02;;;;;;;3.05;83.08;102926.06;5031192;28;20033;-73
2022/03/23 04:06:40;;;;;;;44.88;24.77;;;;;;;3.06;83.29;102929.53;5030484;28;20534;-72
2022/03/23 04:09:05;;;;;;;47.00;25.85;;;;;;;3.02;82.73;102927.66;5031392;28;20030;-72
2022/03/23 04:11:31;;;;;;;47.40;25.83;;;;;;;3.05;82.72;102923.50;5031259;28;20468;-72
2022/03/23 04:13:56;;;;;;;50.08;25.65;;;;;;;3.00;83.19;102929.25;5030291;28;20045;-72
2022/03/23 04:16:22;;;;;;;45.30;25.27;;;;;;;3.01;83.35;102937.06;5031366;28;20021;-72
2022/03/23 04:18:47;;;;;;;46.45;26.58;;;;;;;2.98;83.11;102936.94;5031048;28;20030;-72
2022/03/23 04:21:13;;;;;;;49.83;26.77;;;;;;;2.95;83.82;102938.53;5030189;28;20032;-72
2022/03/23 04:23:38;;;;;;;47.38;26.30;;;;;;;2.92;82.95;102936.69;5030968;28;20030;-72
2022/03/23 04:26:03;;;;;;;44.67;26.10;;;;;;;2.89;83.23;102928.84;5030681;28;20515;-72
2022/03/23 04:28:29;;;;;;;50.30;26.95;;;;;;;2.85;82.76;102939.84;5031039;28;20029;-72
2022/03/23 04:30:55;;;;;;;51.15;27.52;;;;;;;2.81;82.02;102937.91;5034071;28;20031;-72
2022/03/23 04:33:20;;;;;;;51.47;26.77;;;;;;;2.77;82.91;102936.03;5033804;28;20069;-72
2022/03/23 04:35:45;;;;;;;47.85;26.45;;;;;;;2.75;82.91;102933.41;5034717;28;20029;-72
2022/03/23 04:38:11;;;;;;;54.45;28.15;;;;;;;2.70;82.19;102932.31;5034554;28;20025;-72
2022/03/23 04:40:36;;;;;;;50.03;27.65;;;;;;;2.72;82.33;102934.97;5033974;28;20029;-72
2022/03/23 04:43:01;;;;;;;49.20;27.40;;;;;;;2.73;82.96;102931.59;5034938;28;20037;-72
2022/03/23 04:45:27;;;;;;;51.42;28.23;;;;;;;2.68;83.02;102939.13;5034608;28;20068;-72
2022/03/23 04:47:52;;;;;;;51.65;27.25;;;;;;;2.64;83.17;102934.63;5033640;28;20037;-72
2022/03/23 04:50:18;;;;;;;51.83;27.85;;;;;;;2.62;83.16;102945.72;5034450;28;20465;-72
2022/03/23 04:52:45;;;;;;;51.65;27.80;;;;;;;2.57;82.77;102943.78;5034013;28;20080;-72
2022/03/23 04:55:12;;;;;;;57.83;27.98;;;;;;;2.57;82.79;102954.09;5033864;28;20026;-72
2022/03/23 04:57:38;;;;;;;52.00;28.60;;;;;;;2.54;84.32;102953.97;5034134;28;20450;-72
2022/03/23 05:00:13;;;;;;;53.53;27.67;;;;;;;2.53;85.66;102957.38;5034629;28;20040;-72
2022/03/23 05:02:39;;;;;;;56.30;27.80;;;;;;;2.52;85.76;102963.34;5033356;28;20025;-72
2022/03/23 05:05:09;;;;;;;49.33;27.20;;;;;;;2.54;85.97;102964.25;5034438;28;20092;-72
2022/03/23 05:07:34;;;;;;;61.78;29.08;;;;;;;2.51;85.47;102958.97;5034320;28;20429;-72
2022/03/23 05:10:00;;;;;;;56.45;29.75;;;;;;;2.51;85.07;102966.69;5033463;28;20021;-72
2022/03/23 05:12:26;;;;;;;53.22;28.63;;;;;;;2.51;86.12;102969.28;5033956;28;20037;-72
2022/03/23 05:14:51;;;;;;;61.45;29.65;;;;;;;2.47;85.52;102972.53;5033781;28;20025;-72
2022/03/23 05:17:17;;;;;;;52.47;29.35;;;;;;;2.43;85.60;102960.34;5033234;28;20037;-72
2022/03/23 05:19:44;;;;;;;54.65;29.35;;;;;;;2.42;85.71;102963.75;5033766;28;20036;-71
2022/03/23 05:22:09;;;;;;;56.45;30.45;;;;;;;2.40;85.81;102964.50;5034071;28;20401;-72
2022/03/23 05:24:35;;;;;;;55.42;28.92;;;;;;;2.38;85.96;102966.09;5033793;28;20025;-72
2022/03/23 05:27:00;;;;;;;53.67;29.48;;;;;;;2.30;85.32;102970.94;5033898;28;20148;-72
2022/03/23 05:29:25;;;;;;;54.03;29.73;;;;;;;2.26;85.77;102972.50;5032925;28;20473;-72
2022/03/23 05:31:51;;;;;;;56.00;29.38;;;;;;;2.24;85.52;102978.38;5033733;28;20074;-72
2022/03/23 05:34:16;;;;;;;53.92;29.73;;;;;;;2.18;85.05;102967.78;5033503;28;20132;-72
2022/03/23 05:36:41;;;;;;;52.70;29.48;;;;;;;2.19;85.87;102972.13;5032613;28;20408;-72
2022/03/23 05:39:07;;;;;;;57.05;29.77;;;;;;;2.15;85.80;102971.09;5033773;28;20023;-72
2022/03/23 05:41:32;;;;;;;55.60;29.52;;;;;;;2.15;85.89;102967.66;5033431;28;20033;-71
2022/03/23 05:43:58;;;;;;;54.17;29.95;;;;;;;2.13;85.43;102975.31;5032836;28;20033;-72
2022/03/23 05:46:23;;;;;;;60.95;29.88;;;;;;;2.07;86.04;102969.91;5033296;28;20029;-72
2022/03/23 05:48:48;;;;;;;58.13;29.15;;;;;;;2.13;85.50;102977.03;5033348;28;20493;-72
2022/03/23 05:51:13;;;;;;;54.03;28.83;;;;;;;2.13;85.12;102977.03;5032219;28;20048;-72
2022/03/23 05:53:40;;;;;;;55.65;29.25;;;;;;;2.09;85.67;102976.88;5033335;28;20040;-72
2022/03/23 05:56:07;;;;;;;57.13;29.40;;;;;;;2.11;85.67;102975.25;5033679;28;20037;-72
2022/03/23 05:58:34;;;;;;;53.38;27.25;;;;;;;2.15;86.26;102983.97;5032598;28;20171;-72
2022/03/23 06:00:59;;;;;;;63.15;29.40;;;;;;;2.16;86.18;102980.63;5033161;28;20053;-72
2022/03/23 06:03:24;;;;;;;56.03;29.67;;;;;;;2.16;85.50;102984.84;5032997;28;20107;-72
2022/03/23 06:05:50;;;;;;;51.00;28.38;;;;;;;2.19;84.91;102985.00;5032228;28;20469;-72
2022/03/23 06:08:15;;;;;;;55.80;29.98;;;;;;;2.21;85.45;102994.56;5033115;28;20025;-72
2022/03/23 06:10:40;;;;;;;54.08;29.20;;;;;;;2.23;85.16;102989.50;5032865;28;20033;-72
2022/03/23 06:13:06;;;;;;;54.42;29.00;;;;;;;2.22;86.00;102983.44;5032481;28;20044;-72
2022/03/23 06:15:31;;;;;;;52.97;28.58;;;;;;;2.28;85.86;102990.56;5032814;28;20013;-71
2022/03/23 06:17:56;;;;;;;59.88;29.70;;;;;;;2.29;85.40;102994.91;5032828;28;20033;-72
2022/03/23 06:20:22;;;;;;;52.35;28.05;;;;;;;2.34;86.02;102993.41;5031821;28;20025;-72
2022/03/23 06:22:47;;;;;;;54.97;30.05;;;;;;;2.36;85.60;102989.22;5032785;28;20436;-71
2022/03/23 06:25:12;;;;;;;60.72;31.00;;;;;;;2.43;85.53;102996.41;5032709;28;20029;-71
2022/03/23 06:27:38;;;;;;;53.03;29.88;;;;;;;2.52;85.89;102991.66;5031829;28;20462;-72
2022/03/23 06:30:05;;;;;;;52.20;29.90;;;;;;;2.61;85.77;102995.44;5033066;28;20038;-72
2022/03/23 06:32:30;;;;;;;56.67;29.23;;;;;;;2.67;85.44;102993.13;5032260;28;20029;-72
2022/03/23 06:34:56;;;;;;;57.38;29.80;;;;;;;2.76;85.82;102991.84;5031852;28;20030;-72
2022/03/23 06:37:22;;;;;;;58.65;30.15;;;;;;;2.81;84.72;102994.59;5032592;28;20025;-71
2022/03/23 06:39:47;;;;;;;51.78;30.27;;;;;;;2.87;85.41;103000.00;5031722;28;20075;-72
2022/03/23 06:42:13;;;;;;;58.40;29.63;;;;;;;2.96;85.81;103004.69;5032365;28;20568;-72
2022/03/23 06:44:38;;;;;;;51.28;29.40;;;;;;;3.08;85.44;103004.34;5032208;28;20047;-72
2022/03/23 06:47:04;;;;;;;56.53;29.60;;;;;;;3.16;85.32;103008.09;5031828;28;20036;-72
2022/03/23 06:49:29;;;;;;;55.25;29.23;;;;;;;3.29;84.22;103005.22;5032487;28;20029;-72
2022/03/23 06:51:55;;;;;;;71.88;31.38;;;;;;;3.38;85.04;103005.59;5031510;28;20057;-72
2022/03/23 06:54:20;;;;;;;58.20;30.35;;;;;;;3.49;85.23;103008.59;5031199;28;20393;-72
2022/03/23 06:56:50;;;;;;;54.30;30.25;;;;;;;3.58;84.70;103006.38;5032229;28;20037;-72
2022/03/23 06:59:15;;;;;;;56.25;31.00;;;;;;;3.66;83.68;103009.25;5032179;28;20029;-72
2022/03/23 07:01:40;;;;;;;56.92;30.13;;;;;;;3.71;83.02;103000.00;5031074;28;20022;-72
2022/03/23 07:04:06;;;;;;;58.05;30.52;;;;;;;3.88;82.94;103019.59;5032216;28;20033;-72
2022/03/23 07:06:31;;;;;;;54.85;31.17;;;;;;;3.96;82.99;103015.63;5031722;28;20025;-72
2022/03/23 07:11:40;;;;;;;58.88;29.70;;;;;;;4.17;81.05;103012.97;5032077;28;20124;-72
2022/03/23 07:14:05;;;;;;;64.65;31.17;;;;;;;4.29;80.34;103017.72;5032060;28;20108;-72
2022/03/23 07:16:30;;;;;;;58.90;31.55;;;;;;;4.43;80.11;103016.53;5030858;28;20208;-71
2022/03/23 07:18:56;;;;;;;58.83;31.80;;;;;;;4.55;78.75;103010.94;5031572;28;20048;-72
2022/03/23 07:21:21;;;;;;;58.40;31.17;;;;;;;4.62;78.80;103012.03;5031669;28;20033;-72
2022/03/23 07:23:46;;;;;;;62.60;31.05;;;;;;;4.81;78.60;103022.19;5030806;28;20092;-72
2022/03/23 07:26:14;;;;;;;53.35;30.55;;;;;;;4.95;77.17;103019.22;5031693;28;20036;-72
2022/03/23 07:28:39;;;;;;;62.08;31.63;;;;;;;5.06;76.30;103010.09;5031470;28;20029;-72
2022/03/23 07:31:05;;;;;;;57.88;29.88;;;;;;;5.18;75.42;103015.69;5030977;28;20018;-72
2022/03/23 07:33:30;;;;;;;56.75;31.13;;;;;;;5.27;74.57;103009.97;5031554;28;20037;-72
2022/03/23 07:35:55;;;;;;;57.55;31.25;;;;;;;5.46;75.54;103021.75;5030860;28;20759;-72
2022/03/23 07:38:20;;;;;;;55.45;30.58;;;;;;;5.57;73.16;103023.88;5031427;28;20022;-72
2022/03/23 07:40:46;;;;;;;52.10;30.63;;;;;;;5.70;72.30;103022.56;5031544;28;20021;-72
2022/03/23 07:43:11;;;;;;;51.80;30.98;;;;;;;5.82;71.88;103022.94;5030475;28;20364;-72
2022/03/23 07:45:37;;;;;;;55.15;30.30;;;;;;;5.91;70.56;103022.34;5031355;28;20025;-72
2022/03/23 07:48:02;;;;;;;50.22;28.77;;;;;;;6.03;69.70;103019.28;5031882;28;20492;-72
2022/03/23 07:50:28;;;;;;;46.53;28.00;;;;;;;6.17;67.97;103019.69;5030417;28;20028;-72
2022/03/23 07:52:53;;;;;;;49.63;29.08;;;;;;;6.31;67.43;103031.31;5031087;28;20403;-72
2022/03/23 07:55:19;;;;;;;54.13;29.48;;;;;;;6.43;68.06;103033.41;5031348;28;20116;-72
2022/03/23 07:57:45;;;;;;;45.67;27.85;;;;;;;6.48;67.16;103024.94;5030447;28;20030;-72
2022/03/23 08:00:10;;;;;;;53.58;29.25;;;;;;;6.58;66.92;103036.44;5031206;28;20025;-72
2022/03/23 08:02:36;;;;;;;47.75;28.58;;;;;;;6.68;66.35;103043.63;5031585;28;20108;-72
2022/03/23 08:05:02;;;;;;;51.17;29.35;;;;;;;6.79;65.21;103036.13;5033940;28;20029;-72
2022/03/23 08:07:28;;;;;;;48.88;29.45;;;;;;;6.86;65.46;103038.06;5035285;28;20052;-72
2022/03/23 08:09:53;;;;;;;53.33;29.70;;;;;;;6.91;65.33;103026.09;5035222;28;20109;-72
2022/03/23 08:12:18;;;;;;;50.30;28.58;;;;;;;6.99;66.60;103019.38;5034276;28;20106;-72
2022/03/23 08:14:44;;;;;;;46.60;28.73;;;;;;;7.17;65.87;103036.28;5035130;28;20037;-72
2022/03/23 08:17:10;;;;;;;48.88;29.33;;;;;;;7.24;64.75;103026.09;5035065;28;20018;-72
2022/03/23 08:19:36;;;;;;;51.17;28.63;;;;;;;7.30;64.57;103022.78;5034610;28;20028;-72
2022/03/23 08:22:02;;;;;;;48.65;29.52;;;;;;;7.51;62.44;103033.66;5035271;28;20044;-72
2022/03/23 08:24:27;;;;;;;53.55;30.13;;;;;;;7.57;64.11;103025.16;5035003;28;20455;-72
2022/03/23 08:26:53;;;;;;;55.25;30.55;;;;;;;7.68;62.97;103022.81;5034461;28;20095;-72
2022/03/23 08:29:19;;;;;;;47.05;28.50;;;;;;;7.77;62.42;103035.13;5034769;28;20024;-72
2022/03/23 08:31:44;;;;;;;44.55;28.13;;;;;;;7.90;61.84;103031.97;5034720;28;20053;-72
2022/03/23 08:34:09;;;;;;;51.60;28.92;;;;;;;8.08;61.15;103039.31;5034126;28;20030;-72
2022/03/23 08:36:35;;;;;;;48.00;29.50;;;;;;;8.20;60.41;103035.22;5034825;28;20029;-72
2022/03/23 08:39:00;;;;;;;51.55;28.95;;;;;;;8.29;60.15;103031.09;5034807;28;20033;-72
2022/03/23 08:41:27;;;;;;;46.85;28.92;;;;;;;8.44;59.82;103031.44;5033755;28;20530;-72
2022/03/23 08:43:52;;;;;;;48.60;28.33;;;;;;;8.60;59.81;103036.13;5034500;28;20416;-72
2022/03/23 08:46:18;;;;;;;53.40;28.75;;;;;;;8.70;59.49;103028.47;5033716;28;20041;-72
2022/03/23 08:48:43;;;;;;;47.95;29.10;;;;;;;8.83;59.05;103030.47;5034742;28;20060;-72
2022/03/23 08:51:09;;;;;;;52.53;29.55;;;;;;;8.98;58.36;103032.47;5034614;28;20033;-72
2022/03/23 08:53:34;;;;;;;57.60;29.35;;;;;;;9.06;57.10;103023.97;5033733;28;20032;-72
2022/03/23 08:56:00;;;;;;;56.60;29.92;;;;;;;9.31;56.29;103032.19;5034419;28;20466;-72
2022/03/23 08:58:26;;;;;;;50.30;28.42;;;;;;;9.48;56.15;103025.53;5034109;28;20542;-72
2022/03/23 09:00:52;;;;;;;54.38;30.30;;;;;;;9.65;56.00;103027.53;5033423;28;20044;-72
2022/03/23 09:03:17;;;;;;;45.40;27.50;;;;;;;9.75;55.75;103037.22;5034342;28;20474;-72
2022/03/23 09:05:42;;;;;;;48.28;28.52;;;;;;;9.87;56.41;103026.09;5034046;28;20385;-72
2022/03/23 09:08:08;;;;;;;53.78;28.42;;;;;;;10.00;53.23;103033.22;5033756;28;20061;-72
2022/03/23 09:10:34;;;;;;;50.90;28.77;;;;;;;10.12;53.85;103032.53;5034060;28;20068;-72
2022/03/23 09:13:00;;;;;;;57.10;28.67;;;;;;;10.25;54.57;103031.84;5033884;28;20024;-72
2022/03/23 09:15:26;;;;;;;50.83;28.65;;;;;;;10.40;52.36;103024.25;5032455;28;20025;-72
2022/03/23 09:17:52;;;;;;;52.75;29.08;;;;;;;10.59;51.27;103019.22;5033929;28;20032;-72
2022/03/23 09:20:17;;;;;;;52.03;29.25;;;;;;;10.77;51.51;103025.53;5034011;28;20025;-72
2022/03/23 09:22:44;;;;;;;49.03;28.40;;;;;;;10.91;50.75;103025.66;5033188;28;20469;-72
2022/03/23 09:25:12;;;;;;;59.13;31.13;;;;;;;11.05;48.97;103025.78;5034010;28;20022;-72
2022/03/23 09:27:39;;;;;;;51.33;30.35;;;;;;;11.24;48.53;103025.09;5033676;28;20076;-72
2022/03/23 09:30:06;;;;;;;49.35;28.27;;;;;;;11.45;47.52;103011.34;5033184;28;20041;-72
2022/03/23 09:32:32;;;;;;;49.83;27.90;;;;;;;11.61;47.80;103014.06;5033650;28;20045;-72
2022/03/23 09:34:58;;;;;;;48.42;27.15;;;;;;;11.81;46.46;103022.91;5033742;28;20029;-73
2022/03/23 09:40:08;;;;;;;;;;;;;;;12.04;49.52;103024.81;5034555;28;20037;-73
2022/03/23 09:42:33;;;;;;;45.75;26.90;;;;;;;12.29;45.92;103021.44;5032495;28;19917;-73
2022/03/23 09:44:59;;;;;;;45.60;25.98;;;;;;;12.39;42.98;103018.00;5033672;28;20385;-72
2022/03/23 09:47:25;;;;;;;43.17;25.77;;;;;;;12.52;43.40;103021.50;5033461;28;20090;-73
2022/03/23 09:49:50;;;;;;;44.47;24.63;;;;;;;12.66;44.45;103024.19;5032691;28;20481;-72
2022/03/23 09:52:16;;;;;;;43.60;25.75;;;;;;;12.86;42.28;103019.00;5032982;28;20037;-72
2022/03/23 09:54:45;;;;;;;40.45;25.67;;;;;;;13.04;42.13;103023.38;5033144;28;20025;-73
2022/03/23 09:57:10;;;;;;;39.95;24.67;;;;;;;13.20;41.77;103022.50;5032749;28;20032;-72
2022/03/23 09:59:36;;;;;;;42.38;24.13;;;;;;;13.35;39.98;103022.53;5033609;28;20030;-72
2022/03/23 10:02:01;;;;;;;41.58;25.20;;;;;;;13.50;39.14;103016.41;5033457;28;20519;-72
2022/03/23 10:04:48;;;;;;;41.73;24.53;;;;;;;13.61;41.21;103028.66;5032339;28;20075;-73
2022/03/23 10:07:25;;;;;;;41.20;24.27;;;;;;;13.71;40.60;103030.38;5032936;28;20406;-72
2022/03/23 10:10:12;;;;;;;41.42;25.50;;;;;;;13.81;41.74;103026.88;5033288;28;20489;-73
2022/03/23 10:13:20;;;;;;;42.22;24.80;;;;;;;14.00;41.57;103030.31;5032055;28;20060;-73
2022/03/23 10:16:04;;;;;;;38.97;24.95;;;;;;;14.19;39.04;103023.22;5032805;28;20420;-72
2022/03/23 10:18:41;;;;;;;;;;;;;;;14.20;43.51;103025.88;5032357;28;20481;-73
2022/03/23 10:21:07;;;;;;;39.20;23.77;;;;;;;14.33;36.58;103026.69;5033375;28;19913;-73
2022/03/23 10:23:33;;;;;;;42.30;24.48;;;;;;;14.41;35.48;103021.41;5032633;28;20072;-73
2022/03/23 10:26:10;;;;;;;43.72;25.15;;;;;;;14.46;38.68;103023.13;5031867;28;20029;-73
2022/03/23 10:28:35;;;;;;;44.03;23.40;;;;;;;14.68;36.87;103018.69;5032135;28;20025;-73
2022/03/23 10:31:13;;;;;;;37.75;24.05;;;;;;;14.76;37.74;103021.25;5032942;28;20026;-73
2022/03/23 10:33:39;;;;;;;38.90;23.90;;;;;;;14.99;35.37;103021.09;5031791;28;20106;-73
2022/03/23 10:36:04;;;;;;;38.72;23.27;;;;;;;15.02;34.54;103012.31;5032956;28;20025;-73
2022/03/23 10:38:37;;;;;;;35.95;22.95;;;;;;;15.12;35.98;103014.84;5032181;28;20026;-72
2022/03/23 10:41:10;;;;;;;37.42;23.80;;;;;;;15.23;35.27;103017.38;5032106;28;20017;-72
2022/03/23 10:43:38;;;;;;;44.55;25.38;;;;;;;15.30;35.44;103010.31;5032812;28;20082;-73
2022/03/23 10:46:08;;;;;;;42.13;23.75;;;;;;;15.36;35.26;103007.66;5031763;28;20614;-73
2022/03/23 10:48:58;;;;;;;41.33;23.60;;;;;;;15.45;35.04;103010.19;5130112;27;20722;-71
2022/03/23 10:51:32;;;;;;;39.47;23.92;;;;;;;15.70;34.14;103004.75;5129763;27;20487;-71
2022/03/23 10:53:58;;;;;;;;;;;;;;;15.79;36.70;103004.63;5129577;27;20042;-71
2022/03/23 10:56:36;;;;;;;39.03;23.42;;;;;;;15.99;35.45;103000.03;5129778;27;20010;-71
2022/03/23 10:59:17;;;;;;;42.83;22.90;;;;;;;16.17;36.34;102998.03;5130100;27;20027;-71
2022/03/23 11:02:04;;;;;;;36.75;21.75;;;;;;;16.29;34.02;102997.91;5128832;27;20019;-71
2022/03/23 11:04:56;;;;;;;38.33;22.90;;;;;;;16.44;33.35;103007.34;5129759;27;20043;-71
2022/03/23 11:07:38;;;;;;;41.20;21.90;;;;;;;16.48;33.43;102993.22;5128668;27;20031;-71
2022/03/23 11:15:47;;;;;;;33.05;21.27;;;;;;;16.85;33.10;102994.47;5129095;27;20042;-74
2022/03/23 11:18:15;;;;;;;33.45;21.77;;;;;;;16.91;29.96;102993.50;5129305;27;20016;-73
2022/03/23 11:20:49;;;;;;;35.58;21.08;;;;;;;17.11;32.66;102987.06;5129475;27;20020;-71
2022/03/23 11:23:30;;;;;;;31.20;20.63;;;;;;;17.25;32.21;102987.69;5128682;27;20483;-71
2022/03/23 11:25:57;;;;;;;34.35;21.95;;;;;;;17.37;29.62;102986.59;5129383;27;20413;-71
2022/03/23 11:28:24;;;;;;;33.67;21.17;;;;;;;17.44;31.40;102982.94;5128139;27;20027;-71
2022/03/23 11:30:50;;;;;;;36.40;23.08;;;;;;;17.53;30.93;102983.66;5129228;27;20098;-71
2022/03/23 11:33:21;;;;;;;38.45;23.30;;;;;;;17.55;30.48;102986.25;5129382;27;20467;-71
2022/03/23 11:35:48;;;;;;;40.35;23.50;;;;;;;17.67;30.52;102990.44;5128626;27;20471;-71
2022/03/23 11:38:16;;;;;;;29.50;19.85;;;;;;;17.83;30.12;102980.50;5129093;27;20110;-71